WS78 weather

River Valley Airport
Rhinelander, Wisconsin, United States

Public forecast

Using degrees Fahrenheit for public forecast. Weather courtesy of forecast.io.

METAR (pilot weather report)

Closest report is Rhinelander Oneida County Airport, 4.9 nm (9.1 km) N. Retrieved 2019/08/25 06:53 UTC (12 minutes ago):

KRHI 250653Z AUTO 13004KT 10SM CLR 11/10 A3023 RMK AO2 SLP236 T01110100

TAF (pilot weather forecast)

Closest forecast is Rhinelander Oneida County Airport, 4.9 nm (9.1 km) N. Retrieved 2019/08/25 06:22 UTC (43 minutes ago):

TAF KRHI 250520Z 2506/2606 14003KT P6SM SCT250 FM251500 16009KT P6SM SCT030 SCT200 FM251800 15010KT P6SM BKN035 FM260100 13007KT P6SM SCT035 BKN100